Tiempo atmosférico en la estación meteorológica de Santa Elena, Jaén (742 m.)



Fecha
DESCASC
Temp. máxima en grados centígrados (hora)
DESCASC
Temp. mínima en grados centígrados (hora)
DESCASC
Temp. media en grados centígrados
DESCASC
Racha de viento máxima en m/sg (hora)
DESCASC
Velocidad máxima media en intervalos de 10 minutos(hora)
DESCASC
Precipitaciones diarias en mm
DESCASC
Precipitaciones de 00:00 a 06:00 en mm
DESCASC
Precipitaciones de 06:00 a 12:00 en mm
DESCASC
Precipitaciones de 12:00 a 18:00 en mm
DESCASC
Precipitaciones de 18:00 a 24:00 en mm
DESCASC
27-01-2020 8.7 (17:20) 0.3 (06:30) 4.5 5.83 (15:40) 3.06 (23:30) 0 0 0 0 0
26-01-2020 9.9 (15:20) 3.8 (23:59) 6.8 6.67 (16:00) 3.33 (15:30) 0 0 0 0 0
25-01-2020 8 (16:40) 6.2 (00:00) 7.1 7.5 (23:30) 3.33 (23:20) 11.8 0.8 5 1.8 4.2
24-01-2020 10.8 (16:10) 5.3 (00:00) 8.1 5 (15:00) 1.94 (15:30) 1.2 0.4 0.2 0 0.6
23-01-2020 10.8 (15:20) 3.8 (00:00) 7.3 4.72 (14:30) 1.94 (14:30) 0 0 0 0 0
22-01-2020 11 (14:40) 2.4 (00:00) 6.7 5.83 (15:10) 2.5 (14:10) 0.2 0.2 0 0 0
21-01-2020 5.7 (16:20) 1.2 (00:00) 3.4 17.5 (12:40) 9.72 (09:50) 1 0 0.6 0 0.4
20-01-2020 5.7 (16:10) -0.3 (00:00) 2.7 19.17 (04:20) 9.72 (01:30) 0 0 0 0 0
19-01-2020 8.4 (00:00) 1.4 (00:00) 4.9 20.83 (23:40) 11.11 (23:50) 5.2 3.2 0.6 0.4 1
18-01-2020 9.1 (13:30) 6.7 (00:00) 7.9 7.22 (17:30) 3.33 (17:30) 6.8 0 3 1.2 2.6
17-01-2020 -- (--) -- (--) -- -- (--) -- (--) -- -- 0 0 0
16-01-2020 -- (--) -- (--) -- -- (--) -- (--) -- -- -- -- --
15-01-2020 -- (--) -- (--) -- -- (--) -- (--) -- -- -- -- --
14-01-2020 -- (--) -- (--) -- -- (--) -- (--) -- -- -- -- --
13-01-2020 10.3 (15:20) 2 (00:00) 6.2 7.22 (13:50) 2.78 (13:20) 0 0 0 0 0
12-01-2020 10.6 (16:30) 2 (09:10) 6.3 4.17 (14:30) 2.22 (01:20) 0 0 0 0 0
11-01-2020 10 (16:00) 1.6 (07:20) 5.8 -- (--) -- (--) -- -- 0 0 0
10-01-2020 -- (--) -- (--) -- -- (--) -- (--) -- -- -- -- --

Gráficas

Temp. máximas Temp. mínimas Temp. medias Precipitaciones Rachas de viento máximas Velocidades máximas media en intervalos de 10 minutos

Datos horarios

Fecha y hora oficial Temperatura (ºC) Velocidad del viento (km/h) Dirección del viento Racha (km/h) Dirección de racha Precipitación (mm) Presión (hPa) Tendencia (hPa) Humedad (%)
2020-01-27 23:00:00 5.8 9 Sudoeste 18 Sudoeste 0 936.4 0.6 88
2020-01-27 22:00:00 5.5 9 Sudoeste 19 Sudoeste 0 936.1 0.6 88
2020-01-27 21:00:00 5.1 5 Sur 9 Sur 0 935.8 0.7 86
2020-01-27 20:00:00 5.7 5 Sur 9 Sudoeste 0 935.8 0.8 85
2020-01-27 19:00:00 6.4 4 Sur 15 Sur 0 935.5 0.5 83
2020-01-27 18:00:00 8 7 Sur 17 Sur 0 935.1 -0.1 80
2020-01-27 17:00:00 8.6 8 Sur 17 Sudoeste 0 935 -0.9 78
2020-01-27 16:00:00 8.1 9 Sur 21 Sudoeste 0 935 -1.8 82
2020-01-27 15:00:00 7.8 10 Sur 19 Sur 0 935.2 -1.8 90
2020-01-27 14:00:00 6.9 7 Sur 14 Sur 0 935.9 -1.1 91
2020-01-27 13:00:00 6 5 Sudoeste 12 Sudoeste 0 936.8 0.3 91
2020-01-27 12:00:00 4.3 2 Noroeste 5 Oeste 0 937 0.7 92
2020-01-27 11:00:00 2.6 2 Norte 6 Norte 0 937 0.9 92
2020-01-27 10:00:00 2.1 4 Sudeste 10 Sur 0 936.5 0.8 92
2020-01-27 09:00:00 0.4 3 Este 11 Sudeste 0 936.3 0.8 92
2020-01-27 08:00:00 0.8 4 Norte 6 Norte 0 936.1 0.5 91
2020-01-27 07:00:00 1.1 3 Sudeste 11 Sudeste 0 935.7 -0.2 91
2020-01-27 06:00:00 0.9 2 Este 9 Sudeste 0 935.5 -0.7 91
2020-01-27 05:00:00 1.4 2 Nordeste 6 Norte 0 935.6 -0.7 91
2020-01-27 04:00:00 1.7 4 Nordeste 5 Nordeste 0 935.9 -1 90
2020-01-27 03:00:00 2.1 3 Norte 6 Sudeste 0 936.2 -0.7 90
2020-01-27 02:00:00 2.7 3 Oeste -- -- -- 936.3 -0.4 90
2020-01-27 01:00:00 2.9 2 Norte 7 Sur 0 936.9 0.4 90
2020-01-27 00:00:00 3.8 0 Calma 8 Nordeste 0 936.9 0.7 89
2020-01-26 23:00:00 4.2 0 Calma 6 Sudoeste 0 936.7 1.1 88
2020-01-26 22:00:00 5.2 4 Sudoeste 6 Norte 0 936.5 1.5 88
2020-01-26 21:00:00 5.8 5 Norte 10 Oeste 0 936.2 1.7 87
2020-01-26 20:00:00 6.8 5 Sur 14 Sudoeste 0 935.6 1.4 87
2020-01-26 19:00:00 7.2 3 Sur 13 Sudoeste 0 935 1.2 86
2020-01-26 18:00:00 7.4 5 Sur 21 Sudoeste 0 934.5 0.5 84
2020-01-26 17:00:00 8.3 10 Sur 23 Sur 0 934.2 -0.1 82
2020-01-26 16:00:00 9 10 Sur 24 Sur 0 933.8 -0.9 78
2020-01-26 15:00:00 9.1 9 Sur 23 Sur 0 934 -0.9 81
2020-01-26 14:00:00 9.1 9 Sudoeste 21 Sudoeste 0 934.3 -0.1 83
2020-01-26 13:00:00 8.2 7 Sudoeste 17 Sudoeste 0 934.7 1 90
2020-01-26 12:00:00 7.5 5 Oeste 13 Sudoeste 0 934.9 1.7 91
2020-01-26 11:00:00 6.7 3 Norte 8 Norte 0 934.4 2.1 91
2020-01-26 10:00:00 6.3 4 Sur 13 Sudoeste 0 933.7 2.2 91
2020-01-26 09:00:00 5.8 6 Sudoeste 11 Sudoeste 0 933.2 2.2 91
2020-01-26 08:00:00 5.6 3 Sudeste 7 Oeste 0 932.3 1.5 91
2020-01-26 07:00:00 5.5 5 Noroeste 14 Noroeste 0 931.5 0.8 91
2020-01-26 06:00:00 5.5 5 Sur 13 Oeste 0 931 0.6 91
2020-01-26 05:00:00 5.8 5 Oeste 13 Oeste 0 930.8 0.7 91
2020-01-26 04:00:00 5.8 4 Sudoeste 10 Sudoeste 0 930.7 0.9 91
2020-01-26 03:00:00 6.1 6 Sudoeste 16 Sudoeste 0 930.4 0.9 91
2020-01-26 02:00:00 6.3 8 Sudoeste 14 Sudoeste 0 930.1 0.7 90
2020-01-26 01:00:00 6.3 6 Sudoeste 15 Sudoeste 0 929.8 0.7 90
2020-01-26 00:00:00 6.4 8 Sudoeste 27 Sudoeste 0.2 929.5 0.9 90
2020-01-25 23:00:00 6.5 11 Sudoeste 22 Sudoeste 0.2 929.4 1.3 90
2020-01-25 22:00:00 6.6 5 Sur 14 Sur 0.6 929.1 1.5 89
2020-01-25 21:00:00 6.7 4 Sur 6 Sur 2.2 928.6 1.5 89
2020-01-25 20:00:00 6.7 3 Sudeste 8 Sur 0.2 928.1 1.2 89
2020-01-25 19:00:00 6.9 3 Sur 7 Sur 0.8 927.6 1 88
2020-01-25 18:00:00 7.4 2 Sur 12 Sudoeste 0.8 927.1 0.3 88
2020-01-25 17:00:00 7.8 4 Sur 11 Sudeste 0.8 926.9 -0.7 88
2020-01-25 16:00:00 7.5 4 Sudeste 21 Este 0 926.6 -2 89
2020-01-25 15:00:00 7.5 11 Sudeste 25 Sudeste 0 926.8 -2.3 89
2020-01-25 14:00:00 7.2 9 Sudeste 24 Sudeste 0 927.6 -1.1 90
2020-01-25 13:00:00 6.9 9 Sudeste 19 Sudeste 0.2 928.6 0.1 90
2020-01-25 12:00:00 6.6 8 Sudeste 20 Sudeste 1.4 929.1 0.9 90
2020-01-25 11:00:00 6.4 6 Sudeste 15 Sudeste 0.8 928.7 1 90
2020-01-25 10:00:00 6.2 5 Sudeste 19 Sudeste 2 928.5 1.1 90
2020-01-25 09:00:00 6.3 8 Sudeste 23 Sudeste 0.6 928.2 0.8 89
2020-01-25 08:00:00 6.4 2 Nordeste 10 Este 0.2 927.7 -0.1 89
2020-01-25 07:00:00 6.5 3 Sudeste 5 Sudeste 0 927.4 -0.5 89
2020-01-25 06:00:00 6.3 4 Norte 7 Norte 0.2 927.4 -1 88
2020-01-25 05:00:00 6.8 3 Sur 5 Sur 0 927.8 -0.8 88
2020-01-25 04:00:00 6.7 2 Norte 7 Noroeste 0 927.9 -0.9 87
2020-01-25 03:00:00 7 2 Norte 4 Este 0 928.4 -0.6 87
2020-01-25 02:00:00 7.1 0 Calma 5 Sudoeste 0.4 928.6 -0.9 86
2020-01-25 01:00:00 7.1 2 Oeste 8 Nordeste 0.2 928.8 -0.4 85
2020-01-25 00:00:00 7.3 5 Nordeste 15 Sur 0.4 929 0.1 83
2020-01-24 23:00:00 8 7 Sur 16 Sudeste 0.2 929.5 0.6 79
2020-01-24 22:00:00 8.1 5 Sudeste 11 Sudeste 0 929.2 0.6 72
2020-01-24 21:00:00 8.1 5 Este 12 Este 0 928.9 0.3 70
2020-01-24 20:00:00 7.9 2 Nordeste 8 Nordeste 0 928.9 0.1 74
2020-01-24 19:00:00 8.5 4 Norte 8 Este 0 928.6 -0.6 71
2020-01-24 18:00:00 9.6 3 Nordeste 8 Nordeste 0 928.6 -0.7 70
2020-01-24 17:00:00 10.4 5 Nordeste 14 Sur 0 928.8 -1.2 63
2020-01-24 16:00:00 10.7 6 Sudeste 17 Sur 0 929.2 -1.8 63
2020-01-24 15:00:00 10.3 6 Sudeste 18 Este 0 929.3 -2.2 67
2020-01-24 14:00:00 10 4 Sudeste 15 Sudeste 0 930 -1.3 69
2020-01-24 13:00:00 8.7 5 Sudeste 14 Este 0 931 0.1 76
2020-01-24 12:00:00 7.3 6 Sudeste 13 Sudeste 0 931.5 1 83
2020-01-24 11:00:00 6.8 4 Sudeste 7 Sur 0 931.3 1.2 88
2020-01-24 10:00:00 6.1 2 Sudeste 5 Sur 0 930.9 1.1 88
2020-01-24 09:00:00 5.5 0 Calma 4 Sudeste 0 930.5 0.6 87
2020-01-24 08:00:00 5.6 2 Norte 8 Norte 0 930.1 0.5 87
2020-01-24 07:00:00 5.4 5 Norte 8 Norte 0.2 929.8 -0.1 86
2020-01-24 06:00:00 5.8 5 Sur 7 Sur 0.4 929.9 0.1 85
2020-01-24 05:00:00 5.9 0 Calma 6 Sudeste 0 929.6 0 82
2020-01-24 04:00:00 6.2 4 Sur 6 Sudeste 0 929.9 0.3 80
2020-01-24 03:00:00 6.4 3 Sur 6 Sur 0 929.8 0.2 75
2020-01-24 02:00:00 6.5 3 Este 9 Nordeste 0 929.6 0.4 73
2020-01-24 01:00:00 6.7 3 Nordeste 7 Nordeste 0 929.6 0.4 75
2020-01-24 00:00:00 7 2 Sudeste 6 Este 0 929.6 0.7 73
2020-01-23 23:00:00 7 0 Calma 4 Norte 0 929.2 0.7 74
2020-01-23 22:00:00 7.1 3 Norte 6 Este 0 929.2 1.1 73
2020-01-23 21:00:00 7.3 2 Nordeste 9 Este 0 928.9 1 71
2020-01-23 20:00:00 7.9 3 Norte 5 Norte 0 928.5 0.8 68
2020-01-23 19:00:00 8.6 3 Noroeste 5 Este 0 928.1 0.4 66
2020-01-23 18:00:00 9.7 0 Calma 8 Este 0 927.9 0.1 65
2020-01-23 17:00:00 10.8 2 Este 7 Este 0 927.7 -0.5 58
2020-01-23 16:00:00 10.2 4 Sudeste 12 Sudeste 0 927.7 -1.1 60
2020-01-23 15:00:00 10.6 5 Sudeste 17 Este 0 927.8 -1.5 61
2020-01-23 14:00:00 10.1 4 Nordeste 13 Este 0 928.2 -1 63
2020-01-23 13:00:00 9.1 4 Este 10 Este 0 928.8 0.3 67
2020-01-23 12:00:00 7.2 4 Norte 11 Norte 0 929.3 1.3 77
2020-01-23 11:00:00 6.4 2 Nordeste 8 Este 0 929.2 1.7 79
2020-01-23 10:00:00 5.6 3 Este 8 Sur 0 928.5 1.1 80
2020-01-23 09:00:00 4.8 3 Nordeste 7 Nordeste 0 928 0.8 80
2020-01-23 08:00:00 4.3 4 Norte 6 Norte 0 927.5 0 82
2020-01-23 07:00:00 3.9 3 Noroeste 6 Norte 0 927.4 -0.3 81
2020-01-23 06:00:00 4.1 3 Norte 6 Este 0 927.2 -0.4 81
2020-01-23 05:00:00 3.9 3 Norte 6 Norte 0 927.5 0 81
2020-01-23 04:00:00 4.2 3 Este 7 Este 0 927.7 -0.1 80
2020-01-23 03:00:00 4.4 2 Noroeste 5 Noroeste 0 927.6 -0.2 80
2020-01-23 02:00:00 4.6 3 Noroeste 9 Este 0 927.5 0 80
2020-01-23 01:00:00 4.9 4 Este 9 Este 0 927.8 0.6 78
2020-01-23 00:00:00 5.4 4 Este 8 Este 0 927.8 0.8 76
2020-01-22 23:00:00 6 2 Sur 6 Sudoeste 0 927.5 0.7 76
2020-01-22 22:00:00 6.2 3 Sur 6 Sur 0 927.2 0.9 76
2020-01-22 21:00:00 6.4 4 Este 8 Sudeste 0 927 1.3 75
2020-01-22 20:00:00 6.8 3 Sudeste 9 Sudeste 0 926.8 1.3 72
2020-01-22 19:00:00 7.3 5 Sur 11 Sur 0 926.3 0.8 71
2020-01-22 18:00:00 8.6 5 Este 16 Este 0 925.7 -0.1 66
2020-01-22 17:00:00 9.2 6 Este 15 Este 0 925.5 -0.7 62
2020-01-22 16:00:00 10.2 4 Este 21 Este 0 925.5 -1.7 60
2020-01-22 15:00:00 10.7 5 Este 20 Sudeste 0 925.8 -1.6 56
2020-01-22 14:00:00 10.2 7 Este 17 Este 0 926.2 -1.1 59
2020-01-22 13:00:00 9.2 8 Sudeste 17 Sur 0 927.2 0.1 63
2020-01-22 12:00:00 7.8 5 Sudeste 17 Sudeste 0 927.4 0.8 71
2020-01-22 11:00:00 5.8 3 Nordeste 10 Nordeste 0 927.3 1.3 82
2020-01-22 10:00:00 4.4 3 Este 14 Este 0 927.1 1.5 88
2020-01-22 09:00:00 3.6 6 Este 14 Este 0 926.6 1 90
2020-01-22 08:00:00 3.1 5 Nordeste 9 Nordeste 0 926 0.4 90
2020-01-22 07:00:00 2.8 2 Norte 7 Este 0 925.6 -0.1 90
2020-01-22 06:00:00 2.5 4 Este 10 Este 0 925.6 0 90
2020-01-22 05:00:00 2.7 3 Norte 6 Norte 0 925.6 0.1 89
2020-01-22 04:00:00 2.8 4 Nordeste 9 Este 0 925.7 0.1 89
2020-01-22 03:00:00 3 4 Este 9 Este 0 925.6 0 89
2020-01-22 02:00:00 3.2 4 Nordeste 9 Nordeste 0 925.5 0.3 88
2020-01-22 01:00:00 3.2 4 Nordeste 11 Nordeste 0.2 925.6 0.8 88
2020-01-22 00:00:00 3.1 5 Nordeste 13 Nordeste 0.4 925.6 0.8 87
2020-01-21 23:00:00 3 6 Nordeste 13 Nordeste 0 925.2 1 85
2020-01-21 22:00:00 3.1 7 Nordeste 20 Nordeste 0 924.8 0.9 83
2020-01-21 21:00:00 3.5 9 Nordeste 19 Nordeste 0 924.8 1.5 83
2020-01-21 20:00:00 3.9 8 Nordeste 24 Nordeste 0 924.2 1.5 80
2020-01-21 19:00:00 5.1 12 Nordeste 23 Norte 0 923.9 2 78
2020-01-21 18:00:00 5.3 12 Norte 24 Nordeste 0 923.3 0.7 78
2020-01-21 17:00:00 5.5 14 Norte 33 Norte 0 922.7 -0.5 76
2020-01-21 16:00:00 5.4 21 Norte 39 Norte 0 921.9 -1.6 77
2020-01-21 15:00:00 4.6 19 Norte 37 Norte 0 922.6 -1.6 79
2020-01-21 14:00:00 4 18 Nordeste 40 Norte 0 923.2 -1.5 83
2020-01-21 13:00:00 3.4 31 Norte 63 Nordeste 0 923.5 -1.1 83
2020-01-21 12:00:00 2.9 29 Norte 58 Norte 0 924.2 -0.2 84
2020-01-21 11:00:00 2.1 24 Norte 58 Norte 0 924.7 0.1 87
2020-01-21 10:00:00 1.6 28 Norte 56 Norte 0 924.6 0.2 88
2020-01-21 09:00:00 1.3 28 Norte 58 Norte 0 924.4 -0.1 89
2020-01-21 08:00:00 1.5 28 Norte 50 Norte 0.4 924.6 -0.6 88
2020-01-21 07:00:00 2.6 30 Norte 51 Norte 0.2 924.4 -1.5 87
2020-01-21 06:00:00 2.9 28 Norte 58 Norte 0 924.5 -1.2 83
2020-01-21 05:00:00 2.7 24 Norte 49 Norte 0 925.2 -1.3 83
2020-01-21 04:00:00 2.5 27 Norte 62 Norte 0 925.9 -1.5 81
2020-01-21 03:00:00 2.6 27 Nordeste 60 Norte 0 925.7 -1.8 82
2020-01-21 02:00:00 3 23 Nordeste 56 Norte 0 926.5 -0.7 81
2020-01-21 01:00:00 3.6 23 Norte 51 Norte 0 927.4 0.2 78
2020-01-21 00:00:00 3.8 29 Norte 63 Norte 0 927.5 0.6 76
2020-01-20 23:00:00 3.9 24 Norte 54 Nordeste 0 927.2 0.2 77
2020-01-20 22:00:00 3.9 24 Norte 49 Norte 0 927.2 0.6 79
2020-01-20 21:00:00 4.1 23 Nordeste 59 Nordeste 0 926.9 0.8 75
2020-01-20 20:00:00 4.2 23 Nordeste 56 Norte 0 927 1.3 74
2020-01-20 19:00:00 4.1 23 Norte 55 Norte 0 926.6 1.3 75
2020-01-20 18:00:00 4.4 20 Norte 59 Nordeste 0 926.1 0.2 74
2020-01-20 17:00:00 4.9 24 Norte 54 Nordeste 0 925.7 -0.5 69
2020-01-20 16:00:00 5.5 22 Nordeste 65 Nordeste 0 925.3 -1.8 66
2020-01-20 15:00:00 4.7 29 Norte 57 Nordeste 0 925.9 -1.8 71
2020-01-20 14:00:00 3.5 25 Norte 55 Norte 0 926.2 -1 75
2020-01-20 13:00:00 2.3 27 Norte 53 Norte 0 927.1 -0.1 76
2020-01-20 12:00:00 1.8 25 Norte 58 Nordeste 0 927.7 0.7 75
2020-01-20 11:00:00 0.7 31 Norte 60 Norte 0 927.2 -0.1 76
2020-01-20 10:00:00 -0.1 26 Norte 49 Nordeste 0 927.2 0.1 75
2020-01-20 09:00:00 0.2 24 Norte 53 Norte 0 927 -0.6 66
2020-01-20 08:00:00 0.4 28 Norte 64 Norte 0 927.3 -0.2 64
2020-01-20 07:00:00 -0.2 29 Norte 61 Norte 0 927.1 -1.2 74
2020-01-20 06:00:00 0 29 Norte 67 Norte 0 927.6 -1.2 71
2020-01-20 05:00:00 0.3 31 Norte 69 Norte 0 927.5 -1.4 69
2020-01-20 04:00:00 0.7 25 Norte 57 Norte 0 928.3 -0.9 68
2020-01-20 03:00:00 0.9 29 Norte 56 Nordeste 0 928.8 -0.7 69
2020-01-20 02:00:00 1 29 Norte 63 Norte 0 928.9 -0.4 69
2020-01-20 01:00:00 1.1 27 Norte 64 Norte 0 929.2 -0.5 76
2020-01-20 00:00:00 1.4 33 Norte 75 Nordeste 0 929.5 0.4 83
2020-01-19 23:00:00 1.6 31 Nordeste 65 Nordeste 0 929.3 0.3 86
2020-01-19 22:00:00 1.8 31 Norte 60 Norte 0 929.7 0.9 88
2020-01-19 21:00:00 2.1 29 Norte 54 Nordeste 0 929.1 0.9 89
2020-01-19 20:00:00 2 26 Norte 63 Norte 0.6 929 1.2 90
2020-01-19 19:00:00 2.5 27 Norte 58 Norte 0.4 928.8 1.4 88
2020-01-19 18:00:00 3.6 26 Nordeste 50 Norte 0 928.2 0.8 86
2020-01-19 17:00:00 4.1 24 Norte 65 Norte 0 927.8 -0.1 84
2020-01-19 16:00:00 5.4 32 Norte 68 Norte 0 927.4 -1.3 74
2020-01-19 15:00:00 5 26 Norte 53 Norte 0 927.4 -2.1 79
2020-01-19 14:00:00 4.7 20 Norte 56 Norte 0 927.9 -1.4 85
2020-01-19 13:00:00 4.5 22 Norte 50 Norte 0.4 928.7 -0.3 88
2020-01-19 12:00:00 4.4 17 Norte 45 Norte 0.6 929.5 0.5 86
2020-01-19 11:00:00 5.3 17 Norte 39 Norte 0 929.3 0.4 82
2020-01-19 10:00:00 4.4 5 Norte 19 Nordeste 0 929 0 87
2020-01-19 09:00:00 4.1 5 Norte 27 Norte 0 929 0.1 88
2020-01-19 08:00:00 4.7 15 Norte 39 Norte 0 928.9 -0.6 89
2020-01-19 07:00:00 5.1 11 Noroeste 28 Norte 0 929 -1.6 90
2020-01-19 06:00:00 5.3 14 Noroeste 22 Noroeste 1 928.9 -2.2 89
2020-01-19 05:00:00 5.2 11 Noroeste 34 Noroeste 1.2 929.5 -2 89
2020-01-19 04:00:00 5.7 21 Noroeste 33 Noroeste 0.8 930.6 -1.9 88
2020-01-19 03:00:00 6 11 Oeste 26 Oeste 0 931.1 -1.6 90
2020-01-19 02:00:00 7 8 Noroeste 27 Oeste 0 931.5 -1.7 91
2020-01-19 01:00:00 8.3 12 Oeste 34 Noroeste 0.2 932.5 -0.9 91
2020-01-19 00:00:00 8.4 8 Sur 22 Sudoeste 0.2 932.7 -1.4 91
2020-01-18 23:00:00 8.4 9 Sudoeste 18 Sudoeste 0.4 933.2 -1.7 91
2020-01-18 22:00:00 7.9 4 Sudeste 15 Sudeste 0 933.4 -1.8 91
2020-01-18 21:00:00 7.7 6 Sudeste 14 Sudeste 1 934.1 -1.7 90
2020-01-18 20:00:00 7.7 4 Sur 18 Sur 0.6 934.9 -1.8 90
2020-01-18 19:00:00 7.7 11 Sur 20 Sudoeste 0.4 935.2 -2.3 90
2020-01-18 18:00:00 7.6 10 Sudoeste 26 Sur 0.2 935.8 -2.2 90
2020-01-18 17:00:00 7.6 6 Sur 21 Sur 0.2 936.7 -2.1 89
2020-01-18 16:00:00 7.6 7 Sur 19 Sur 0.4 937.5 -2.4 88
2020-01-18 15:00:00 8.1 7 Sur 20 Sur 0.2 938 -2.9 88
2020-01-18 14:00:00 8.4 11 Sur 24 Sur 0.2 938.8 -2.8 88
2020-01-18 13:00:00 8.7 10 Sur 18 Sur 0 939.9 -1.5 89
2020-01-18 12:00:00 8.4 5 Sudeste 10 Sudeste 0.2 940.9 -0.3 89
2020-01-18 11:00:00 7.4 2 Norte 10 Sudeste 0.4 941.6 0.7 89
2020-01-18 10:00:00 6.9 2 Este 15 Sudoeste 2 941.4 1.2 88
2020-01-18 09:00:00 7 9 Sur 22 Sudoeste 0.4 941.2 1 86
2020-01-18 08:00:00 6.8 4 Norte 10 Sudeste 0 940.9 0.9 84
2020-01-18 07:00:00 7.3 7 Sudeste 13 Sur 0 940.2 -0.4 82
2020-01-18 06:00:00 7.5 0 Calma 9 Sudoeste 0 940.2 -0.2 80
2020-01-18 05:00:00 8 7 Oeste 11 Oeste 0 940 -1 79
2020-01-18 04:00:00 7.6 7 Oeste 15 Noroeste 0 940.6 -1.1 82
2020-01-18 03:00:00 6.9 2 Noroeste 9 Este 0 940.4 -1.9 83
2020-01-18 02:00:00 7 5 Sudeste 9 Sudeste 0 941 -1.5 82
2020-01-18 01:00:00 7.3 4 Este 6 Este 0 941.7 -0.8 80
2020-01-18 00:00:00 7.4 2 Norte 5 Norte 0 942.3 -0.2 78
2020-01-17 23:00:00 7.5 3 Noroeste 4 Noroeste 0 942.5 0.5 79
2020-01-17 22:00:00 7.8 3 Norte 6 Norte 0 942.5 0.7 80
2020-01-17 21:00:00 7.9 3 Norte 9 Sur 0 942.5 1.1 80
2020-01-17 20:00:00 8.5 6 Sudoeste 8 Sudoeste 0 942 1.1 77
2020-01-17 19:00:00 9.5 5 Sur 10 Oeste 0 941.8 0.9 74
2020-01-17 18:00:00 10.9 4 Oeste 12 Sudoeste 0 941.4 0.4 68
2020-01-17 17:00:00 12.2 5 Sur 18 Sur 0 940.9 -0.6 65
2020-01-17 16:00:00 12.6 9 Sur 20 Sur 0 940.9 -1.3 64
2020-01-17 15:00:00 11.9 9 Sur 19 Sur 0 941 -1.9 66
2020-01-17 14:00:00 11.4 8 Sur 22 Sur 0 941.5 -0.9 65
2020-01-17 13:00:00 10.4 9 Sur 24 Sudoeste 0 942.2 0.2 66
2020-01-17 12:00:00 9.3 13 Sudoeste 25 Sudoeste 0 942.9 1.9 71
2020-01-17 11:00:00 8.5 13 Sudoeste 36 Sudoeste 0 942.4 1.6 70
2020-01-17 10:00:00 7.7 7 Sudoeste 14 Sudoeste 0 942 1.7 72
2020-01-17 09:00:00 7.2 6 Sudoeste 17 Sudoeste 0 941 1 72
2020-01-17 08:00:00 7.1 8 Sudoeste 16 Sudoeste 0 940.8 1.2 75
2020-01-17 07:00:00 7.2 7 Sudoeste 14 Sudoeste 0 940.3 0.7 75
2020-01-17 06:00:00 6.5 7 Sudoeste 13 Sudoeste 0 940 0.4 69
2020-01-17 05:00:00 5.9 6 Sur 12 Sudoeste 0 939.6 0.1 69
2020-01-17 04:00:00 5.2 5 Sudoeste 13 Sur 0 939.6 0 69
2020-01-17 03:00:00 5.6 8 Sur 14 Sur 0 939.6 -- 65
2020-01-17 02:00:00 6.1 4 Sur 12 Sudoeste 0 939.5 -- 62
2020-01-17 01:00:00 6.5 -- -- -- -- -- 939.6 -- 57
2020-01-17 00:00:00 -- -- -- -- -- -- -- -- --
2020-01-16 23:00:00 -- -- -- -- -- -- -- -- --
2020-01-16 22:00:00 -- -- -- -- -- -- -- -- --
2020-01-16 21:00:00 -- -- -- -- -- -- -- -- --
2020-01-16 20:00:00 -- -- -- -- -- -- -- -- --
2020-01-16 19:00:00 -- -- -- -- -- -- -- -- --
2020-01-16 18:00:00 -- -- -- -- -- -- -- -- --
2020-01-16 17:00:00 -- -- -- -- -- -- -- -- --
2020-01-16 16:00:00 -- -- -- -- -- -- -- -- --
2020-01-16 15:00:00 -- -- -- -- -- -- -- -- --
2020-01-16 14:00:00 -- -- -- -- -- -- -- -- --
2020-01-16 13:00:00 -- -- -- -- -- -- -- -- --
2020-01-16 12:00:00 -- -- -- -- -- -- -- -- --
2020-01-16 11:00:00 -- -- -- -- -- -- -- -- --
2020-01-16 10:00:00 -- -- -- -- -- -- -- -- --
2020-01-16 09:00:00 -- -- -- -- -- -- -- -- --
2020-01-16 08:00:00 -- -- -- -- -- -- -- -- --
2020-01-16 07:00:00 -- -- -- -- -- -- -- -- --
2020-01-16 06:00:00 -- -- -- -- -- -- -- -- --
2020-01-16 05:00:00 -- -- -- -- -- -- -- -- --
2020-01-16 04:00:00 -- -- -- -- -- -- -- -- --
2020-01-16 03:00:00 5.5 0 Calma -- -- -- 938.3 -- 78
2020-01-16 02:00:00 6.2 6 Sudeste -- -- -- 938.2 -- 79
2020-01-16 01:00:00 6.5 -- -- -- -- -- 938.4 -- 77
2020-01-16 00:00:00 -- -- -- -- -- -- -- -- --
2020-01-15 23:00:00 -- -- -- -- -- -- -- -- --
2020-01-15 22:00:00 -- -- -- -- -- -- -- -- --
2020-01-15 21:00:00 -- -- -- -- -- -- -- -- --
2020-01-15 20:00:00 -- -- -- -- -- -- -- -- --
2020-01-15 19:00:00 -- -- -- -- -- -- -- -- --
2020-01-15 18:00:00 -- -- -- -- -- -- -- -- --
2020-01-15 17:00:00 -- -- -- -- -- -- -- -- --
2020-01-15 16:00:00 -- -- -- -- -- -- -- -- --
2020-01-15 15:00:00 -- -- -- -- -- -- -- -- --
2020-01-15 14:00:00 -- -- -- -- -- -- -- -- --
2020-01-15 13:00:00 -- -- -- -- -- -- -- -- --
2020-01-15 12:00:00 -- -- -- -- -- -- -- -- --
2020-01-15 11:00:00 -- -- -- -- -- -- -- -- --
2020-01-15 10:00:00 -- -- -- -- -- -- -- -- --
2020-01-15 09:00:00 -- -- -- -- -- -- -- -- --
2020-01-15 08:00:00 -- -- -- -- -- -- -- -- --
2020-01-15 07:00:00 -- -- -- -- -- -- -- -- --
2020-01-15 06:00:00 -- -- -- -- -- -- -- -- --
2020-01-15 05:00:00 -- -- -- -- -- -- -- -- --
2020-01-15 04:00:00 -- -- -- -- -- -- -- -- --
2020-01-15 03:00:00 -- -- -- -- -- -- -- -- --
2020-01-15 02:00:00 -- -- -- -- -- -- -- -- --
2020-01-15 01:00:00 -- -- -- -- -- -- -- -- --